LRBS/BBU METAR and TAF weather

Enter ICAO airport designator
Station Type Date Time Source
LRBS METAR 2020/01/22 21:00 UTC NOAA

LRBS 222100Z 00000KT CAVOK 00/M03 Q1019 NOSIG


Station Type Date Time Source
LRBS Decoded METAR 2020/01/22 21:00 UTC NOAA

Bucuresti / Imh, Romania (LRBS) 44-30N 026-08E 91M
Jan 22, 2020 - 04:00 PM EST / 2020.01.22 2100 UTC
Wind: Calm:0
Visibility: greater than 7 mile(s):0
Temperature: 32 F (0 C)
Dew Point: 26 F (-3 C)
Relative Humidity: 80%
Pressure (altimeter): 30.09 in. Hg (1019 hPa)
ob: LRBS 222100Z 00000KT CAVOK 00/M03 Q1019 NOSIG
cycle: 21

Station Type Date Time Source
LRBS TAF 2020/01/22 18:33 UTC NOAA

TAF TAF LRBS 221700Z 2218/2318 VRB04KT CAVOK
TEMPO 2300/2305 36012KT

Example: see airport list